sensor_id;sensor_type;location;lat;lon;timestamp;pressure;altitude;pressure_sealevel;temperature;humidity
78717;BME280;68045;50.042;14.432;2023-07-08T00:03:08;98757.25;;;22.02;34.72
78717;BME280;68045;50.042;14.432;2023-07-08T00:07:11;98750.50;;;22.04;34.53
78717;BME280;68045;50.042;14.432;2023-07-08T00:11:14;98761.72;;;21.92;34.82
78717;BME280;68045;50.042;14.432;2023-07-08T00:15:15;98769.25;;;21.90;35.24
78717;BME280;68045;50.042;14.432;2023-07-08T00:19:16;98762.34;;;21.84;35.43
78717;BME280;68045;50.042;14.432;2023-07-08T00:23:24;98766.41;;;22.01;36.53
78717;BME280;68045;50.042;14.432;2023-07-08T00:27:24;98774.47;;;22.01;36.34
78717;BME280;68045;50.042;14.432;2023-07-08T00:31:26;98771.88;;;21.96;36.59
78717;BME280;68045;50.042;14.432;2023-07-08T00:39:36;98778.03;;;21.77;36.47
78717;BME280;68045;50.042;14.432;2023-07-08T00:43:40;98771.13;;;21.52;37.17
78717;BME280;68045;50.042;14.432;2023-07-08T00:47:43;98774.91;;;21.51;37.18
78717;BME280;68045;50.042;14.432;2023-07-08T00:51:44;98779.91;;;21.39;37.08
78717;BME280;68045;50.042;14.432;2023-07-08T00:55:45;98785.13;;;21.25;38.06
78717;BME280;68045;50.042;14.432;2023-07-08T00:59:58;98780.25;;;21.32;38.28
78717;BME280;68045;50.042;14.432;2023-07-08T01:04:11;98779.44;;;21.32;38.59
78717;BME280;68045;50.042;14.432;2023-07-08T01:08:13;98763.00;;;21.38;38.25
78717;BME280;68045;50.042;14.432;2023-07-08T01:12:28;98772.22;;;21.27;38.32
78717;BME280;68045;50.042;14.432;2023-07-08T01:16:31;98776.75;;;21.08;38.98
78717;BME280;68045;50.042;14.432;2023-07-08T01:20:34;98766.16;;;20.93;39.35
78717;BME280;68045;50.042;14.432;2023-07-08T01:24:37;98767.19;;;20.73;39.22
78717;BME280;68045;50.042;14.432;2023-07-08T01:28:39;98764.59;;;20.63;39.42
78717;BME280;68045;50.042;14.432;2023-07-08T01:32:45;98755.22;;;20.65;39.04
78717;BME280;68045;50.042;14.432;2023-07-08T01:36:51;98743.38;;;20.37;39.45
78717;BME280;68045;50.042;14.432;2023-07-08T01:40:56;98741.06;;;20.25;39.89
78717;BME280;68045;50.042;14.432;2023-07-08T01:44:58;98745.38;;;20.21;40.22
78717;BME280;68045;50.042;14.432;2023-07-08T01:48:59;98742.16;;;20.19;40.46
78717;BME280;68045;50.042;14.432;2023-07-08T01:53:05;98741.94;;;20.16;40.62
78717;BME280;68045;50.042;14.432;2023-07-08T01:57:09;98741.84;;;20.26;40.67
78717;BME280;68045;50.042;14.432;2023-07-08T02:01:10;98736.44;;;20.31;40.60
78717;BME280;68045;50.042;14.432;2023-07-08T02:05:11;98735.25;;;20.42;40.37
78717;BME280;68045;50.042;14.432;2023-07-08T02:09:12;98735.84;;;20.44;40.51
78717;BME280;68045;50.042;14.432;2023-07-08T02:13:13;98738.97;;;20.51;40.27
78717;BME280;68045;50.042;14.432;2023-07-08T02:17:14;98731.31;;;20.35;40.82
78717;BME280;68045;50.042;14.432;2023-07-08T02:21:17;98733.53;;;20.27;41.06
78717;BME280;68045;50.042;14.432;2023-07-08T02:25:19;98735.91;;;20.29;40.49
78717;BME280;68045;50.042;14.432;2023-07-08T02:29:20;98738.97;;;20.17;40.56
78717;BME280;68045;50.042;14.432;2023-07-08T02:33:21;98740.56;;;20.18;41.02
78717;BME280;68045;50.042;14.432;2023-07-08T02:37:33;98735.66;;;20.30;41.85
78717;BME280;68045;50.042;14.432;2023-07-08T02:41:34;98736.72;;;20.29;42.13
78717;BME280;68045;50.042;14.432;2023-07-08T02:45:36;98720.69;;;20.24;42.47
78717;BME280;68045;50.042;14.432;2023-07-08T02:49:36;98727.13;;;20.23;42.52
78717;BME280;68045;50.042;14.432;2023-07-08T02:53:37;98731.63;;;19.94;43.85
78717;BME280;68045;50.042;14.432;2023-07-08T02:57:38;98735.50;;;19.78;44.35
78717;BME280;68045;50.042;14.432;2023-07-08T03:01:39;98730.41;;;19.27;45.48
78717;BME280;68045;50.042;14.432;2023-07-08T03:05:43;98725.66;;;19.18;45.76
78717;BME280;68045;50.042;14.432;2023-07-08T03:09:44;98737.94;;;19.25;45.46
78717;BME280;68045;50.042;14.432;2023-07-08T03:13:45;98737.81;;;19.45;45.74
78717;BME280;68045;50.042;14.432;2023-07-08T03:17:46;98737.25;;;19.53;44.63
78717;BME280;68045;50.042;14.432;2023-07-08T03:21:47;98740.16;;;19.57;44.59
78717;BME280;68045;50.042;14.432;2023-07-08T03:25:48;98739.09;;;18.98;45.66
78717;BME280;68045;50.042;14.432;2023-07-08T03:29:50;98746.63;;;18.86;46.32
78717;BME280;68045;50.042;14.432;2023-07-08T03:33:51;98750.38;;;18.80;46.42
78717;BME280;68045;50.042;14.432;2023-07-08T03:37:52;98762.44;;;18.82;46.02
78717;BME280;68045;50.042;14.432;2023-07-08T03:41:54;98758.97;;;18.36;47.77
78717;BME280;68045;50.042;14.432;2023-07-08T03:45:55;98762.97;;;18.44;47.65
78717;BME280;68045;50.042;14.432;2023-07-08T03:49:56;98763.78;;;18.75;47.20
78717;BME280;68045;50.042;14.432;2023-07-08T03:53:57;98766.97;;;18.72;47.01
78717;BME280;68045;50.042;14.432;2023-07-08T03:57:59;98765.34;;;18.86;47.21
78717;BME280;68045;50.042;14.432;2023-07-08T04:02:03;98779.78;;;18.85;46.85
78717;BME280;68045;50.042;14.432;2023-07-08T04:06:04;98784.63;;;18.62;47.63
78717;BME280;68045;50.042;14.432;2023-07-08T04:10:06;98784.63;;;18.73;47.34
78717;BME280;68045;50.042;14.432;2023-07-08T04:14:10;98780.06;;;18.78;47.37
78717;BME280;68045;50.042;14.432;2023-07-08T04:18:12;98789.69;;;18.89;47.59
78717;BME280;68045;50.042;14.432;2023-07-08T04:22:13;98787.50;;;19.02;47.27
78717;BME280;68045;50.042;14.432;2023-07-08T04:26:14;98788.28;;;19.02;46.84
78717;BME280;68045;50.042;14.432;2023-07-08T04:30:22;98795.53;;;19.07;47.32
78717;BME280;68045;50.042;14.432;2023-07-08T04:34:23;98794.72;;;19.11;47.51
78717;BME280;68045;50.042;14.432;2023-07-08T04:38:25;98794.97;;;19.15;47.08
78717;BME280;68045;50.042;14.432;2023-07-08T04:42:26;98790.97;;;19.07;47.54
78717;BME280;68045;50.042;14.432;2023-07-08T04:46:31;98791.97;;;19.27;48.01
78717;BME280;68045;50.042;14.432;2023-07-08T04:50:36;98807.19;;;19.36;47.42
78717;BME280;68045;50.042;14.432;2023-07-08T04:54:37;98809.13;;;19.20;47.15
78717;BME280;68045;50.042;14.432;2023-07-08T04:58:37;98807.19;;;19.36;47.55
78717;BME280;68045;50.042;14.432;2023-07-08T05:02:38;98811.16;;;19.54;47.09
78717;BME280;68045;50.042;14.432;2023-07-08T05:06:39;98811.09;;;19.69;46.61
78717;BME280;68045;50.042;14.432;2023-07-08T05:10:40;98809.44;;;19.79;46.31
78717;BME280;68045;50.042;14.432;2023-07-08T05:14:41;98815.00;;;19.87;46.78
78717;BME280;68045;50.042;14.432;2023-07-08T05:18:44;98818.47;;;19.93;46.48
78717;BME280;68045;50.042;14.432;2023-07-08T05:22:45;98817.94;;;19.96;46.73
78717;BME280;68045;50.042;14.432;2023-07-08T05:26:47;98821.59;;;20.10;46.86
78717;BME280;68045;50.042;14.432;2023-07-08T05:30:52;98827.97;;;20.14;46.83
78717;BME280;68045;50.042;14.432;2023-07-08T05:34:54;98833.09;;;20.16;46.81
78717;BME280;68045;50.042;14.432;2023-07-08T05:38:56;98832.75;;;20.22;46.67
78717;BME280;68045;50.042;14.432;2023-07-08T05:42:57;98835.91;;;20.29;46.44
78717;BME280;68045;50.042;14.432;2023-07-08T05:46:57;98838.81;;;20.38;46.27
78717;BME280;68045;50.042;14.432;2023-07-08T05:50:58;98839.34;;;20.45;46.30
78717;BME280;68045;50.042;14.432;2023-07-08T05:54:59;98834.75;;;20.46;46.45
78717;BME280;68045;50.042;14.432;2023-07-08T05:59:00;98837.59;;;20.60;46.35
78717;BME280;68045;50.042;14.432;2023-07-08T06:03:01;98850.16;;;20.64;46.32
78717;BME280;68045;50.042;14.432;2023-07-08T06:07:01;98850.53;;;20.87;45.54
78717;BME280;68045;50.042;14.432;2023-07-08T06:11:02;98841.09;;;20.89;45.93
78717;BME280;68045;50.042;14.432;2023-07-08T06:15:03;98844.22;;;21.25;44.71
78717;BME280;68045;50.042;14.432;2023-07-08T06:19:04;98841.38;;;21.41;44.31
78717;BME280;68045;50.042;14.432;2023-07-08T06:23:06;98832.78;;;21.15;44.86
78717;BME280;68045;50.042;14.432;2023-07-08T06:27:07;98839.50;;;21.41;44.26
78717;BME280;68045;50.042;14.432;2023-07-08T06:31:08;98838.25;;;21.57;44.17
78717;BME280;68045;50.042;14.432;2023-07-08T06:35:09;98828.59;;;21.75;43.44
78717;BME280;68045;50.042;14.432;2023-07-08T06:39:10;98823.28;;;21.70;43.46
78717;BME280;68045;50.042;14.432;2023-07-08T06:43:11;98830.63;;;21.83;43.17
78717;BME280;68045;50.042;14.432;2023-07-08T06:47:22;98822.50;;;22.07;42.89
78717;BME280;68045;50.042;14.432;2023-07-08T06:51:23;98823.97;;;22.00;42.72
78717;BME280;68045;50.042;14.432;2023-07-08T06:55:24;98816.34;;;22.26;41.84
78717;BME280;68045;50.042;14.432;2023-07-08T06:59:25;98810.50;;;22.37;40.73
78717;BME280;68045;50.042;14.432;2023-07-08T07:03:26;98810.00;;;22.35;40.94
78717;BME280;68045;50.042;14.432;2023-07-08T07:07:26;98820.59;;;22.45;41.08
78717;BME280;68045;50.042;14.432;2023-07-08T07:11:27;98811.53;;;22.41;41.00
78717;BME280;68045;50.042;14.432;2023-07-08T07:15:29;98801.88;;;22.54;40.54
78717;BME280;68045;50.042;14.432;2023-07-08T07:19:31;98803.28;;;22.52;40.96
78717;BME280;68045;50.042;14.432;2023-07-08T07:23:32;98804.31;;;22.56;40.53
78717;BME280;68045;50.042;14.432;2023-07-08T07:27:32;98802.31;;;22.94;39.57
78717;BME280;68045;50.042;14.432;2023-07-08T07:31:33;98806.59;;;22.95;39.87
78717;BME280;68045;50.042;14.432;2023-07-08T07:35:34;98808.41;;;23.13;39.37
78717;BME280;68045;50.042;14.432;2023-07-08T07:39:35;98811.28;;;23.30;39.34
78717;BME280;68045;50.042;14.432;2023-07-08T07:43:36;98820.56;;;23.52;38.19
78717;BME280;68045;50.042;14.432;2023-07-08T07:47:37;98819.34;;;23.58;38.38
78717;BME280;68045;50.042;14.432;2023-07-08T07:51:38;98813.97;;;23.72;37.82
78717;BME280;68045;50.042;14.432;2023-07-08T07:55:39;98813.03;;;23.90;37.25
78717;BME280;68045;50.042;14.432;2023-07-08T07:59:40;98814.59;;;24.27;37.42
78717;BME280;68045;50.042;14.432;2023-07-08T08:03:40;98807.09;;;24.24;37.81
78717;BME280;68045;50.042;14.432;2023-07-08T08:07:41;98806.41;;;24.55;36.86
78717;BME280;68045;50.042;14.432;2023-07-08T08:11:42;98798.59;;;25.07;36.26
78717;BME280;68045;50.042;14.432;2023-07-08T08:15:43;98799.94;;;25.27;35.91
78717;BME280;68045;50.042;14.432;2023-07-08T08:19:44;98805.88;;;25.37;35.15
78717;BME280;68045;50.042;14.432;2023-07-08T08:23:45;98807.59;;;25.42;35.50
78717;BME280;68045;50.042;14.432;2023-07-08T08:27:46;98803.16;;;25.37;35.51
78717;BME280;68045;50.042;14.432;2023-07-08T08:31:46;98790.00;;;25.53;35.63
78717;BME280;68045;50.042;14.432;2023-07-08T08:35:47;98792.91;;;25.83;34.99
78717;BME280;68045;50.042;14.432;2023-07-08T08:39:48;98795.16;;;26.07;32.36
78717;BME280;68045;50.042;14.432;2023-07-08T08:43:49;98795.31;;;25.93;32.86
78717;BME280;68045;50.042;14.432;2023-07-08T08:47:56;98786.56;;;26.05;32.13
78717;BME280;68045;50.042;14.432;2023-07-08T08:51:59;98788.47;;;25.95;32.56
78717;BME280;68045;50.042;14.432;2023-07-08T08:56:21;98786.84;;;26.20;32.67
78717;BME280;68045;50.042;14.432;2023-07-08T09:00:35;98790.19;;;26.52;31.74
78717;BME280;68045;50.042;14.432;2023-07-08T09:04:38;98781.03;;;26.82;31.43
78717;BME280;68045;50.042;14.432;2023-07-08T09:08:40;98780.78;;;27.14;29.21
78717;BME280;68045;50.042;14.432;2023-07-08T09:12:42;98776.69;;;26.90;29.95
78717;BME280;68045;50.042;14.432;2023-07-08T09:21:21;98770.25;;;27.03;27.28
78717;BME280;68045;50.042;14.432;2023-07-08T09:25:40;98766.91;;;27.15;27.37
78717;BME280;68045;50.042;14.432;2023-07-08T09:29:43;98768.84;;;27.35;27.10
78717;BME280;68045;50.042;14.432;2023-07-08T09:33:44;98763.59;;;27.60;27.03
78717;BME280;68045;50.042;14.432;2023-07-08T09:37:47;98762.56;;;27.73;26.21
78717;BME280;68045;50.042;14.432;2023-07-08T09:41:49;98766.25;;;27.69;27.45
78717;BME280;68045;50.042;14.432;2023-07-08T09:45:50;98759.50;;;27.96;26.23
78717;BME280;68045;50.042;14.432;2023-07-08T09:49:52;98767.97;;;28.15;25.96
78717;BME280;68045;50.042;14.432;2023-07-08T09:53:53;98765.59;;;28.26;25.33
78717;BME280;68045;50.042;14.432;2023-07-08T09:57:56;98767.06;;;28.44;24.97
78717;BME280;68045;50.042;14.432;2023-07-08T10:02:00;98762.56;;;28.60;24.44
78717;BME280;68045;50.042;14.432;2023-07-08T10:06:13;98754.25;;;28.90;24.36
78717;BME280;68045;50.042;14.432;2023-07-08T10:10:19;98764.56;;;29.21;24.64
78717;BME280;68045;50.042;14.432;2023-07-08T10:14:29;98760.22;;;29.69;24.35
78717;BME280;68045;50.042;14.432;2023-07-08T10:18:32;98764.31;;;29.63;23.00
78717;BME280;68045;50.042;14.432;2023-07-08T10:23:05;98744.75;;;29.20;24.15
78717;BME280;68045;50.042;14.432;2023-07-08T10:31:35;98733.75;;;29.81;24.32
78717;BME280;68045;50.042;14.432;2023-07-08T10:35:49;98735.06;;;29.60;23.96
78717;BME280;68045;50.042;14.432;2023-07-08T10:40:12;98728.03;;;29.59;24.69
78717;BME280;68045;50.042;14.432;2023-07-08T10:44:31;98735.06;;;30.28;23.74
78717;BME280;68045;50.042;14.432;2023-07-08T11:09:46;98723.06;;;29.89;20.65
78717;BME280;68045;50.042;14.432;2023-07-08T11:13:53;98714.94;;;30.04;20.87
78717;BME280;68045;50.042;14.432;2023-07-08T11:22:11;98707.81;;;30.44;20.99
78717;BME280;68045;50.042;14.432;2023-07-08T11:26:32;98710.41;;;30.52;21.07
78717;BME280;68045;50.042;14.432;2023-07-08T11:30:35;98703.25;;;30.48;20.97
78717;BME280;68045;50.042;14.432;2023-07-08T11:34:42;98703.38;;;30.67;21.11
78717;BME280;68045;50.042;14.432;2023-07-08T11:38:48;98702.72;;;31.05;21.63
78717;BME280;68045;50.042;14.432;2023-07-08T11:42:51;98692.47;;;31.34;20.35
78717;BME280;68045;50.042;14.432;2023-07-08T11:46:54;98698.50;;;31.62;19.63
78717;BME280;68045;50.042;14.432;2023-07-08T11:50:57;98682.78;;;31.21;19.71
78717;BME280;68045;50.042;14.432;2023-07-08T11:55:03;98684.50;;;30.30;20.78
78717;BME280;68045;50.042;14.432;2023-07-08T11:59:19;98685.22;;;30.27;20.91
78717;BME280;68045;50.042;14.432;2023-07-08T12:03:34;98673.91;;;30.57;21.21
78717;BME280;68045;50.042;14.432;2023-07-08T12:07:46;98673.47;;;30.55;20.95
78717;BME280;68045;50.042;14.432;2023-07-08T12:11:52;98663.00;;;30.57;20.39
78717;BME280;68045;50.042;14.432;2023-07-08T12:15:54;98666.44;;;30.70;19.81
78717;BME280;68045;50.042;14.432;2023-07-08T12:20:21;98657.50;;;31.04;20.18
78717;BME280;68045;50.042;14.432;2023-07-08T12:24:22;98655.13;;;31.03;18.78
78717;BME280;68045;50.042;14.432;2023-07-08T12:28:26;98638.09;;;30.90;19.57
78717;BME280;68045;50.042;14.432;2023-07-08T12:32:27;98651.41;;;30.76;19.51
78717;BME280;68045;50.042;14.432;2023-07-08T12:36:30;98655.56;;;30.38;20.02
78717;BME280;68045;50.042;14.432;2023-07-08T12:40:31;98650.25;;;30.14;20.29
78717;BME280;68045;50.042;14.432;2023-07-08T12:44:33;98640.84;;;30.58;20.62
78717;BME280;68045;50.042;14.432;2023-07-08T12:48:37;98638.22;;;30.78;20.18
78717;BME280;68045;50.042;14.432;2023-07-08T12:52:39;98649.16;;;30.97;21.00
78717;BME280;68045;50.042;14.432;2023-07-08T12:56:43;98642.66;;;30.86;21.16
78717;BME280;68045;50.042;14.432;2023-07-08T13:00:46;98648.31;;;30.77;21.11
78717;BME280;68045;50.042;14.432;2023-07-08T13:04:49;98639.78;;;30.63;19.94
78717;BME280;68045;50.042;14.432;2023-07-08T13:08:52;98647.16;;;30.62;19.58
78717;BME280;68045;50.042;14.432;2023-07-08T13:12:59;98632.59;;;30.71;20.42
78717;BME280;68045;50.042;14.432;2023-07-08T13:17:01;98639.50;;;31.19;20.33
78717;BME280;68045;50.042;14.432;2023-07-08T13:21:03;98633.25;;;31.18;20.55
78717;BME280;68045;50.042;14.432;2023-07-08T13:25:14;98633.00;;;31.43;20.39
78717;BME280;68045;50.042;14.432;2023-07-08T13:29:18;98625.31;;;31.49;21.15
78717;BME280;68045;50.042;14.432;2023-07-08T13:33:19;98624.25;;;31.53;20.31
78717;BME280;68045;50.042;14.432;2023-07-08T13:37:20;98626.03;;;30.91;20.12
78717;BME280;68045;50.042;14.432;2023-07-08T13:41:24;98628.56;;;30.80;19.96
78717;BME280;68045;50.042;14.432;2023-07-08T13:45:30;98625.97;;;30.87;20.69
78717;BME280;68045;50.042;14.432;2023-07-08T13:57:40;98617.88;;;30.91;20.75
78717;BME280;68045;50.042;14.432;2023-07-08T14:01:43;98617.38;;;31.05;21.48
78717;BME280;68045;50.042;14.432;2023-07-08T14:05:45;98617.66;;;31.35;19.92
78717;BME280;68045;50.042;14.432;2023-07-08T14:09:46;98611.03;;;31.16;20.09
78717;BME280;68045;50.042;14.432;2023-07-08T14:13:47;98610.63;;;30.99;19.63
78717;BME280;68045;50.042;14.432;2023-07-08T14:17:48;98609.56;;;31.03;19.68
78717;BME280;68045;50.042;14.432;2023-07-08T14:21:56;98618.44;;;30.81;19.99
78717;BME280;68045;50.042;14.432;2023-07-08T14:25:58;98605.84;;;30.76;19.61
78717;BME280;68045;50.042;14.432;2023-07-08T14:29:59;98609.00;;;30.62;19.96
78717;BME280;68045;50.042;14.432;2023-07-08T14:34:05;98603.50;;;30.59;19.96
78717;BME280;68045;50.042;14.432;2023-07-08T14:38:11;98604.97;;;30.72;20.71
78717;BME280;68045;50.042;14.432;2023-07-08T14:42:14;98597.69;;;30.60;20.62
78717;BME280;68045;50.042;14.432;2023-07-08T14:46:18;98601.09;;;30.57;20.70
78717;BME280;68045;50.042;14.432;2023-07-08T14:50:19;98601.03;;;30.54;20.33
78717;BME280;68045;50.042;14.432;2023-07-08T14:54:20;98592.25;;;30.60;20.37
78717;BME280;68045;50.042;14.432;2023-07-08T14:58:29;98589.50;;;30.60;20.17
78717;BME280;68045;50.042;14.432;2023-07-08T15:02:31;98580.38;;;30.69;20.29
78717;BME280;68045;50.042;14.432;2023-07-08T15:06:34;98574.66;;;30.58;20.77
78717;BME280;68045;50.042;14.432;2023-07-08T15:10:36;98578.69;;;30.64;20.50
78717;BME280;68045;50.042;14.432;2023-07-08T15:14:39;98571.22;;;30.77;21.02
78717;BME280;68045;50.042;14.432;2023-07-08T15:18:40;98570.63;;;30.68;20.89
78717;BME280;68045;50.042;14.432;2023-07-08T15:22:42;98568.41;;;30.57;20.96
78717;BME280;68045;50.042;14.432;2023-07-08T15:26:46;98569.41;;;30.49;21.82
78717;BME280;68045;50.042;14.432;2023-07-08T15:30:48;98568.69;;;30.52;22.45
78717;BME280;68045;50.042;14.432;2023-07-08T15:34:49;98570.13;;;30.46;21.40
78717;BME280;68045;50.042;14.432;2023-07-08T15:38:50;98556.34;;;30.58;21.44
78717;BME280;68045;50.042;14.432;2023-07-08T15:42:53;98562.16;;;30.57;23.27
78717;BME280;68045;50.042;14.432;2023-07-08T15:46:54;98557.81;;;30.52;24.24
78717;BME280;68045;50.042;14.432;2023-07-08T15:50:55;98556.84;;;30.80;20.28
78717;BME280;68045;50.042;14.432;2023-07-08T15:54:56;98552.66;;;30.82;20.62
78717;BME280;68045;50.042;14.432;2023-07-08T15:58:57;98557.31;;;30.82;20.51
78717;BME280;68045;50.042;14.432;2023-07-08T16:03:05;98557.72;;;30.84;21.23
78717;BME280;68045;50.042;14.432;2023-07-08T16:07:09;98559.81;;;30.90;20.41
78717;BME280;68045;50.042;14.432;2023-07-08T16:11:20;98554.59;;;31.01;21.33
78717;BME280;68045;50.042;14.432;2023-07-08T16:15:30;98560.84;;;31.02;20.54
78717;BME280;68045;50.042;14.432;2023-07-08T16:19:33;98559.53;;;30.96;20.59
78717;BME280;68045;50.042;14.432;2023-07-08T16:23:36;98554.16;;;30.99;20.57
78717;BME280;68045;50.042;14.432;2023-07-08T16:27:36;98554.72;;;30.89;20.73
78717;BME280;68045;50.042;14.432;2023-07-08T16:31:37;98553.34;;;30.79;20.61
78717;BME280;68045;50.042;14.432;2023-07-08T16:35:38;98555.91;;;30.72;20.89
78717;BME280;68045;50.042;14.432;2023-07-08T16:39:39;98556.69;;;30.73;20.82
78717;BME280;68045;50.042;14.432;2023-07-08T16:43:40;98562.09;;;30.53;20.91
78717;BME280;68045;50.042;14.432;2023-07-08T16:47:41;98556.75;;;30.41;21.22
78717;BME280;68045;50.042;14.432;2023-07-08T16:51:42;98556.91;;;30.48;21.38
78717;BME280;68045;50.042;14.432;2023-07-08T16:55:43;98555.53;;;30.39;21.91
78717;BME280;68045;50.042;14.432;2023-07-08T16:59:44;98558.63;;;30.21;21.95
78717;BME280;68045;50.042;14.432;2023-07-08T17:03:45;98550.78;;;30.04;22.29
78717;BME280;68045;50.042;14.432;2023-07-08T17:07:47;98548.69;;;29.97;22.60
78717;BME280;68045;50.042;14.432;2023-07-08T17:11:48;98549.19;;;29.87;22.15
78717;BME280;68045;50.042;14.432;2023-07-08T17:15:49;98547.53;;;29.83;22.57
78717;BME280;68045;50.042;14.432;2023-07-08T17:19:49;98553.47;;;29.72;22.11
78717;BME280;68045;50.042;14.432;2023-07-08T17:23:52;98550.56;;;29.65;22.22
78717;BME280;68045;50.042;14.432;2023-07-08T17:27:53;98557.53;;;29.63;22.48
78717;BME280;68045;50.042;14.432;2023-07-08T17:31:55;98543.91;;;29.63;22.32
78717;BME280;68045;50.042;14.432;2023-07-08T17:35:56;98555.84;;;29.46;22.73
78717;BME280;68045;50.042;14.432;2023-07-08T17:39:57;98562.06;;;29.31;22.85
78717;BME280;68045;50.042;14.432;2023-07-08T17:43:57;98558.06;;;29.40;22.47
78717;BME280;68045;50.042;14.432;2023-07-08T17:47:58;98558.34;;;29.23;22.96
78717;BME280;68045;50.042;14.432;2023-07-08T17:51:59;98571.34;;;29.02;23.43
78717;BME280;68045;50.042;14.432;2023-07-08T17:56:00;98562.88;;;28.79;23.36
78717;BME280;68045;50.042;14.432;2023-07-08T18:00:01;98560.16;;;28.79;23.84
78717;BME280;68045;50.042;14.432;2023-07-08T18:04:13;98567.09;;;28.64;23.79
78717;BME280;68045;50.042;14.432;2023-07-08T18:08:14;98571.63;;;28.48;24.31
78717;BME280;68045;50.042;14.432;2023-07-08T18:12:15;98571.97;;;28.34;24.44
78717;BME280;68045;50.042;14.432;2023-07-08T18:16:18;98570.28;;;28.41;24.21
78717;BME280;68045;50.042;14.432;2023-07-08T18:20:20;98574.56;;;28.30;24.35
78717;BME280;68045;50.042;14.432;2023-07-08T18:24:21;98569.31;;;28.25;24.29
78717;BME280;68045;50.042;14.432;2023-07-08T18:28:23;98573.06;;;28.08;24.92
78717;BME280;68045;50.042;14.432;2023-07-08T18:32:23;98580.59;;;27.90;24.94
78717;BME280;68045;50.042;14.432;2023-07-08T18:36:24;98574.81;;;27.80;25.15
78717;BME280;68045;50.042;14.432;2023-07-08T18:40:33;98577.94;;;27.70;25.24
78717;BME280;68045;50.042;14.432;2023-07-08T18:44:36;98574.66;;;27.64;24.95
78717;BME280;68045;50.042;14.432;2023-07-08T18:48:38;98577.03;;;27.65;25.27
78717;BME280;68045;50.042;14.432;2023-07-08T18:52:39;98576.06;;;27.49;25.98
78717;BME280;68045;50.042;14.432;2023-07-08T18:56:40;98587.13;;;27.44;26.50
78717;BME280;68045;50.042;14.432;2023-07-08T19:00:42;98582.09;;;27.34;26.27
78717;BME280;68045;50.042;14.432;2023-07-08T19:04:43;98578.81;;;27.28;26.76
78717;BME280;68045;50.042;14.432;2023-07-08T19:08:46;98573.78;;;27.18;26.56
78717;BME280;68045;50.042;14.432;2023-07-08T19:12:50;98578.66;;;27.04;27.04
78717;BME280;68045;50.042;14.432;2023-07-08T19:16:51;98577.13;;;26.94;27.05
78717;BME280;68045;50.042;14.432;2023-07-08T19:20:53;98591.03;;;26.93;27.52
78717;BME280;68045;50.042;14.432;2023-07-08T19:24:54;98594.88;;;26.83;27.75
78717;BME280;68045;50.042;14.432;2023-07-08T19:28:55;98594.28;;;26.77;27.25
78717;BME280;68045;50.042;14.432;2023-07-08T19:32:57;98596.31;;;26.60;28.89
78717;BME280;68045;50.042;14.432;2023-07-08T19:36:58;98608.00;;;26.51;28.71
78717;BME280;68045;50.042;14.432;2023-07-08T19:40:59;98608.81;;;26.35;28.85
78717;BME280;68045;50.042;14.432;2023-07-08T19:45:00;98610.59;;;26.31;28.39
78717;BME280;68045;50.042;14.432;2023-07-08T19:49:01;98608.41;;;26.24;28.91
78717;BME280;68045;50.042;14.432;2023-07-08T19:53:03;98619.25;;;26.15;29.00
78717;BME280;68045;50.042;14.432;2023-07-08T19:57:09;98624.22;;;26.05;29.41
78717;BME280;68045;50.042;14.432;2023-07-08T20:01:10;98634.41;;;25.99;29.48
78717;BME280;68045;50.042;14.432;2023-07-08T20:05:12;98633.66;;;25.90;29.52
78717;BME280;68045;50.042;14.432;2023-07-08T20:09:13;98627.28;;;25.86;29.68
78717;BME280;68045;50.042;14.432;2023-07-08T20:13:15;98624.13;;;25.75;30.60
78717;BME280;68045;50.042;14.432;2023-07-08T20:17:15;98636.34;;;25.64;30.52
78717;BME280;68045;50.042;14.432;2023-07-08T20:21:17;98643.69;;;25.55;30.50
78717;BME280;68045;50.042;14.432;2023-07-08T20:25:19;98649.25;;;25.50;31.06
78717;BME280;68045;50.042;14.432;2023-07-08T20:29:20;98648.59;;;25.44;31.21
78717;BME280;68045;50.042;14.432;2023-07-08T20:33:22;98647.50;;;25.36;31.84
78717;BME280;68045;50.042;14.432;2023-07-08T20:37:23;98644.94;;;25.23;31.68
78717;BME280;68045;50.042;14.432;2023-07-08T20:41:23;98653.38;;;25.12;31.83
78717;BME280;68045;50.042;14.432;2023-07-08T20:45:30;98645.91;;;25.09;31.77
78717;BME280;68045;50.042;14.432;2023-07-08T20:49:31;98650.34;;;25.05;31.67
78717;BME280;68045;50.042;14.432;2023-07-08T20:53:32;98650.94;;;25.02;31.70
78717;BME280;68045;50.042;14.432;2023-07-08T20:57:33;98661.56;;;24.99;31.74
78717;BME280;68045;50.042;14.432;2023-07-08T21:01:34;98653.13;;;24.91;31.54
78717;BME280;68045;50.042;14.432;2023-07-08T21:05:35;98670.72;;;24.80;32.53
78717;BME280;68045;50.042;14.432;2023-07-08T21:09:36;98662.13;;;24.70;32.94
78717;BME280;68045;50.042;14.432;2023-07-08T21:13:37;98665.78;;;24.74;33.63
78717;BME280;68045;50.042;14.432;2023-07-08T21:17:41;98667.53;;;24.70;33.36
78717;BME280;68045;50.042;14.432;2023-07-08T21:21:42;98675.28;;;24.62;33.46
78717;BME280;68045;50.042;14.432;2023-07-08T21:25:49;98675.72;;;24.56;33.35
78717;BME280;68045;50.042;14.432;2023-07-08T21:29:51;98679.16;;;24.39;33.66
78717;BME280;68045;50.042;14.432;2023-07-08T21:33:52;98678.59;;;24.28;34.08
78717;BME280;68045;50.042;14.432;2023-07-08T21:37:58;98671.38;;;24.15;34.28
78717;BME280;68045;50.042;14.432;2023-07-08T21:42:00;98671.69;;;24.14;34.15
78717;BME280;68045;50.042;14.432;2023-07-08T21:46:01;98671.03;;;24.08;34.66
78717;BME280;68045;50.042;14.432;2023-07-08T21:50:02;98667.47;;;23.99;35.68
78717;BME280;68045;50.042;14.432;2023-07-08T21:54:03;98672.09;;;23.98;35.11
78717;BME280;68045;50.042;14.432;2023-07-08T21:58:04;98688.97;;;23.68;36.40